sensor_id;sensor_type;location;lat;lon;timestamp;pressure;altitude;pressure_sealevel;temperature;humidity
84639;BME280;74869;51.924;5.712;2024-03-29T00:01:01;99156.91;;;8.01;69.23
84639;BME280;74869;51.924;5.712;2024-03-29T00:03:27;99150.47;;;8.02;68.81
84639;BME280;74869;51.924;5.712;2024-03-29T00:05:52;99150.97;;;8.04;69.18
84639;BME280;74869;51.924;5.712;2024-03-29T00:08:18;99135.53;;;8.01;68.63
84639;BME280;74869;51.924;5.712;2024-03-29T00:10:47;99120.34;;;7.88;68.38
84639;BME280;74869;51.924;5.712;2024-03-29T00:13:12;99141.97;;;8.00;69.13
84639;BME280;74869;51.924;5.712;2024-03-29T00:15:37;99140.72;;;7.98;69.14
84639;BME280;74869;51.924;5.712;2024-03-29T00:18:03;99131.81;;;7.89;69.33
84639;BME280;74869;51.924;5.712;2024-03-29T00:20:28;99149.22;;;8.00;69.29
84639;BME280;74869;51.924;5.712;2024-03-29T00:22:55;99140.72;;;7.98;68.87
84639;BME280;74869;51.924;5.712;2024-03-29T00:25:20;99150.91;;;7.96;69.01
84639;BME280;74869;51.924;5.712;2024-03-29T00:27:45;99141.25;;;7.86;69.45
84639;BME280;74869;51.924;5.712;2024-03-29T00:30:11;99128.13;;;7.76;69.61
84639;BME280;74869;51.924;5.712;2024-03-29T00:32:36;99148.28;;;7.82;69.44
84639;BME280;74869;51.924;5.712;2024-03-29T00:35:02;99143.31;;;7.67;69.64
84639;BME280;74869;51.924;5.712;2024-03-29T00:37:27;99156.41;;;7.77;70.00
84639;BME280;74869;51.924;5.712;2024-03-29T00:39:52;99151.19;;;7.72;70.29
84639;BME280;74869;51.924;5.712;2024-03-29T00:42:18;99156.41;;;7.77;70.21
84639;BME280;74869;51.924;5.712;2024-03-29T00:44:45;99148.28;;;7.82;70.01
84639;BME280;74869;51.924;5.712;2024-03-29T00:47:10;99141.31;;;7.73;69.53
84639;BME280;74869;51.924;5.712;2024-03-29T00:49:35;99165.09;;;7.83;69.95
84639;BME280;74869;51.924;5.712;2024-03-29T00:52:02;99149.06;;;7.83;69.71
84639;BME280;74869;51.924;5.712;2024-03-29T00:54:28;99151.44;;;7.84;70.04
84639;BME280;74869;51.924;5.712;2024-03-29T00:56:53;99148.28;;;7.82;70.12
84639;BME280;74869;51.924;5.712;2024-03-29T00:59:19;99160.50;;;7.97;70.26
84639;BME280;74869;51.924;5.712;2024-03-29T01:01:45;99152.00;;;7.95;69.68
84639;BME280;74869;51.924;5.712;2024-03-29T01:04:11;99173.06;;;7.96;69.84
84639;BME280;74869;51.924;5.712;2024-03-29T01:06:37;99159.59;;;7.79;69.73
84639;BME280;74869;51.924;5.712;2024-03-29T01:09:03;99165.41;;;7.81;69.73
84639;BME280;74869;51.924;5.712;2024-03-29T01:11:29;99171.72;;;7.85;69.71
84639;BME280;74869;51.924;5.712;2024-03-29T01:13:55;99134.81;;;7.51;69.74
84639;BME280;74869;51.924;5.712;2024-03-29T01:16:20;99180.97;;;7.79;70.01
84639;BME280;74869;51.924;5.712;2024-03-29T01:18:46;99186.19;;;7.84;70.06
84639;BME280;74869;51.924;5.712;2024-03-29T01:21:12;99176.41;;;7.80;69.62
84639;BME280;74869;51.924;5.712;2024-03-29T01:23:38;99164.19;;;7.65;70.30
84639;BME280;74869;51.924;5.712;2024-03-29T01:26:04;99174.84;;;7.65;70.32
84639;BME280;74869;51.924;5.712;2024-03-29T01:28:30;99181.91;;;7.61;70.28
84639;BME280;74869;51.924;5.712;2024-03-29T01:30:55;99154.31;;;7.52;70.56
84639;BME280;74869;51.924;5.712;2024-03-29T01:33:23;99151.34;;;7.53;70.69
84639;BME280;74869;51.924;5.712;2024-03-29T01:35:48;99153.72;;;7.55;70.91
84639;BME280;74869;51.924;5.712;2024-03-29T01:38:15;99155.59;;;7.54;70.64
84639;BME280;74869;51.924;5.712;2024-03-29T01:40:41;99121.13;;;7.31;70.96
84639;BME280;74869;51.924;5.712;2024-03-29T01:43:06;99151.75;;;7.47;71.07
84639;BME280;74869;51.924;5.712;2024-03-29T01:45:35;99119.56;;;7.30;70.94
84639;BME280;74869;51.924;5.712;2024-03-29T01:48:01;99116.03;;;7.20;71.30
84639;BME280;74869;51.924;5.712;2024-03-29T01:50:27;99131.41;;;7.37;70.70
84639;BME280;74869;51.924;5.712;2024-03-29T01:52:52;99114.78;;;7.40;71.13
84639;BME280;74869;51.924;5.712;2024-03-29T01:55:18;99105.03;;;7.36;71.36
84639;BME280;74869;51.924;5.712;2024-03-29T01:57:43;99055.28;;;7.04;71.35
84639;BME280;74869;51.924;5.712;2024-03-29T02:00:09;99079.75;;;7.19;71.13
84639;BME280;74869;51.924;5.712;2024-03-29T02:02:36;99094.41;;;7.44;71.01
84639;BME280;74869;51.924;5.712;2024-03-29T02:05:02;99097.00;;;7.36;70.88
84639;BME280;74869;51.924;5.712;2024-03-29T02:07:28;99084.00;;;7.20;71.42
84639;BME280;74869;51.924;5.712;2024-03-29T02:09:54;99115.59;;;7.41;71.11
84639;BME280;74869;51.924;5.712;2024-03-29T02:12:19;99078.53;;;7.25;70.92
84639;BME280;74869;51.924;5.712;2024-03-29T02:14:44;99110.72;;;7.43;71.01
84639;BME280;74869;51.924;5.712;2024-03-29T02:17:10;99085.47;;;7.27;71.37
84639;BME280;74869;51.924;5.712;2024-03-29T02:19:35;99110.84;;;7.38;71.32
84639;BME280;74869;51.924;5.712;2024-03-29T02:22:01;99066.31;;;7.11;70.94
84639;BME280;74869;51.924;5.712;2024-03-29T02:24:27;99134.16;;;7.46;71.27
84639;BME280;74869;51.924;5.712;2024-03-29T02:26:56;99144.84;;;7.46;71.75
84639;BME280;74869;51.924;5.712;2024-03-29T02:29:21;99127.09;;;7.28;71.25
84639;BME280;74869;51.924;5.712;2024-03-29T02:31:47;99115.31;;;7.29;71.67
84639;BME280;74869;51.924;5.712;2024-03-29T02:34:12;99144.84;;;7.46;71.30
84639;BME280;74869;51.924;5.712;2024-03-29T02:36:38;99127.09;;;7.28;71.67
84639;BME280;74869;51.924;5.712;2024-03-29T02:39:04;99140.72;;;7.26;71.75
84639;BME280;74869;51.924;5.712;2024-03-29T02:41:35;99139.50;;;7.46;71.91
84639;BME280;74869;51.924;5.712;2024-03-29T02:44:00;99136.59;;;7.56;71.63
84639;BME280;74869;51.924;5.712;2024-03-29T02:46:25;99144.25;;;7.49;71.25
84639;BME280;74869;51.924;5.712;2024-03-29T02:48:51;99142.25;;;7.54;71.27
84639;BME280;74869;51.924;5.712;2024-03-29T02:51:16;99137.88;;;7.58;71.38
84639;BME280;74869;51.924;5.712;2024-03-29T02:53:41;99140.94;;;7.65;71.79
84639;BME280;74869;51.924;5.712;2024-03-29T02:56:06;99120.69;;;7.51;71.53
84639;BME280;74869;51.924;5.712;2024-03-29T02:58:35;99149.50;;;7.76;71.42
84639;BME280;74869;51.924;5.712;2024-03-29T03:01:07;99139.31;;;7.78;71.38
84639;BME280;74869;51.924;5.712;2024-03-29T03:03:33;99145.69;;;7.91;71.17
84639;BME280;74869;51.924;5.712;2024-03-29T03:05:58;99127.69;;;7.83;70.93
84639;BME280;74869;51.924;5.712;2024-03-29T03:08:23;99129.44;;;7.87;70.32
84639;BME280;74869;51.924;5.712;2024-03-29T03:11:07;99154.56;;;8.00;70.85
84639;BME280;74869;51.924;5.712;2024-03-29T03:13:33;99126.06;;;7.95;70.68
84639;BME280;74869;51.924;5.712;2024-03-29T03:15:58;99131.41;;;7.95;70.45
84639;BME280;74869;51.924;5.712;2024-03-29T03:18:23;99143.91;;;8.09;70.90
84639;BME280;74869;51.924;5.712;2024-03-29T03:20:55;99140.28;;;8.04;70.27
84639;BME280;74869;51.924;5.712;2024-03-29T03:23:23;99173.09;;;8.19;70.63
84639;BME280;74869;51.924;5.712;2024-03-29T03:25:55;99162.72;;;8.26;70.15
84639;BME280;74869;51.924;5.712;2024-03-29T03:28:21;99151.34;;;8.12;70.33
84639;BME280;74869;51.924;5.712;2024-03-29T03:30:48;99156.13;;;8.23;70.24
84639;BME280;74869;51.924;5.712;2024-03-29T03:33:13;99154.13;;;8.29;70.33
84639;BME280;74869;51.924;5.712;2024-03-29T03:35:38;99119.72;;;8.14;69.90
84639;BME280;74869;51.924;5.712;2024-03-29T03:38:04;99147.44;;;8.40;69.44
84639;BME280;74869;51.924;5.712;2024-03-29T03:40:29;99146.63;;;8.39;69.48
84639;BME280;74869;51.924;5.712;2024-03-29T03:42:54;99124.22;;;8.27;69.70
84639;BME280;74869;51.924;5.712;2024-03-29T03:45:20;99156.78;;;8.51;69.58
84639;BME280;74869;51.924;5.712;2024-03-29T03:47:45;99158.84;;;8.54;69.06
84639;BME280;74869;51.924;5.712;2024-03-29T03:50:10;99147.44;;;8.40;69.28
84639;BME280;74869;51.924;5.712;2024-03-29T03:52:36;99165.63;;;8.60;68.81
84639;BME280;74869;51.924;5.712;2024-03-29T03:55:01;99155.88;;;8.56;69.27
84639;BME280;74869;51.924;5.712;2024-03-29T03:57:26;99158.06;;;8.54;69.78
84639;BME280;74869;51.924;5.712;2024-03-29T03:59:52;99164.53;;;8.61;70.02
84639;BME280;74869;51.924;5.712;2024-03-29T04:02:17;99174.75;;;8.59;69.96
84639;BME280;74869;51.924;5.712;2024-03-29T04:04:42;99153.75;;;8.44;70.71
84639;BME280;74869;51.924;5.712;2024-03-29T04:07:08;99179.66;;;8.57;70.77
84639;BME280;74869;51.924;5.712;2024-03-29T04:09:33;99157.19;;;8.36;71.46
84639;BME280;74869;51.924;5.712;2024-03-29T04:11:58;99194.41;;;8.55;71.23
84639;BME280;74869;51.924;5.712;2024-03-29T04:14:24;99176.78;;;8.54;71.42
84639;BME280;74869;51.924;5.712;2024-03-29T04:16:49;99184.31;;;8.52;72.00
84639;BME280;74869;51.924;5.712;2024-03-29T04:19:14;99193.75;;;8.49;72.11
84639;BME280;74869;51.924;5.712;2024-03-29T04:21:40;99146.34;;;8.19;72.75
84639;BME280;74869;51.924;5.712;2024-03-29T04:24:05;99198.75;;;8.42;72.61
84639;BME280;74869;51.924;5.712;2024-03-29T04:26:33;99200.13;;;8.39;72.48
84639;BME280;74869;51.924;5.712;2024-03-29T04:28:59;99198.88;;;8.37;73.24
84639;BME280;74869;51.924;5.712;2024-03-29T04:31:24;99199.00;;;8.32;73.87
84639;BME280;74869;51.924;5.712;2024-03-29T04:33:49;99188.13;;;8.15;73.77
84639;BME280;74869;51.924;5.712;2024-03-29T04:36:15;99196.66;;;8.17;74.22
84639;BME280;74869;51.924;5.712;2024-03-29T04:38:40;99212.19;;;8.15;74.70
84639;BME280;74869;51.924;5.712;2024-03-29T04:41:06;99200.66;;;8.05;75.03
84639;BME280;74869;51.924;5.712;2024-03-29T04:43:31;99192.66;;;8.05;75.24
84639;BME280;74869;51.924;5.712;2024-03-29T04:46:04;99198.47;;;8.07;75.70
84639;BME280;74869;51.924;5.712;2024-03-29T04:48:34;99206.59;;;8.02;76.51
84639;BME280;74869;51.924;5.712;2024-03-29T04:50:59;99222.63;;;8.02;76.35
84639;BME280;74869;51.924;5.712;2024-03-29T04:53:25;99178.16;;;7.84;76.83
84639;BME280;74869;51.924;5.712;2024-03-29T04:55:54;99206.84;;;7.92;77.36
84639;BME280;74869;51.924;5.712;2024-03-29T04:58:23;99214.19;;;7.87;77.26
84639;BME280;74869;51.924;5.712;2024-03-29T05:00:49;99208.16;;;7.81;77.86
84639;BME280;74869;51.924;5.712;2024-03-29T05:03:17;99218.38;;;7.79;78.46
84639;BME280;74869;51.924;5.712;2024-03-29T05:05:42;99200.06;;;7.73;78.60
84639;BME280;74869;51.924;5.712;2024-03-29T05:08:07;99206.78;;;7.70;78.99
84639;BME280;74869;51.924;5.712;2024-03-29T05:10:33;99212.84;;;7.62;79.43
84639;BME280;74869;51.924;5.712;2024-03-29T05:12:59;99228.09;;;7.61;79.91
84639;BME280;74869;51.924;5.712;2024-03-29T05:15:26;99209.69;;;7.60;80.20
84639;BME280;74869;51.924;5.712;2024-03-29T05:17:51;99235.41;;;7.56;80.44
84639;BME280;74869;51.924;5.712;2024-03-29T05:20:16;99233.34;;;7.53;80.90
84639;BME280;74869;51.924;5.712;2024-03-29T05:22:42;99215.22;;;7.50;80.78
84639;BME280;74869;51.924;5.712;2024-03-29T05:25:07;99221.88;;;7.52;80.87
84639;BME280;74869;51.924;5.712;2024-03-29T05:27:33;99206.16;;;7.37;81.22
84639;BME280;74869;51.924;5.712;2024-03-29T05:29:58;99228.13;;;7.48;81.97
84639;BME280;74869;51.924;5.712;2024-03-29T05:32:24;99222.97;;;7.38;82.16
84639;BME280;74869;51.924;5.712;2024-03-29T05:34:50;99242.94;;;7.40;82.13
84639;BME280;74869;51.924;5.712;2024-03-29T05:37:15;99243.53;;;7.37;82.04
84639;BME280;74869;51.924;5.712;2024-03-29T05:39:42;99233.66;;;7.38;82.13
84639;BME280;74869;51.924;5.712;2024-03-29T05:42:08;99235.22;;;7.39;82.34
84639;BME280;74869;51.924;5.712;2024-03-29T05:44:37;99233.66;;;7.38;82.84
84639;BME280;74869;51.924;5.712;2024-03-29T05:47:03;99231.47;;;7.40;82.81
84639;BME280;74869;51.924;5.712;2024-03-29T05:49:30;99238.00;;;7.34;82.61
84639;BME280;74869;51.924;5.712;2024-03-29T05:51:55;99217.84;;;7.28;83.05
84639;BME280;74869;51.924;5.712;2024-03-29T05:54:21;99235.84;;;7.36;83.37
84639;BME280;74869;51.924;5.712;2024-03-29T05:56:48;99211.50;;;7.23;83.33
84639;BME280;74869;51.924;5.712;2024-03-29T05:59:13;99244.94;;;7.35;83.48
84639;BME280;74869;51.924;5.712;2024-03-29T06:01:38;99210.34;;;7.16;83.24
84639;BME280;74869;51.924;5.712;2024-03-29T06:04:04;99232.06;;;7.37;83.71
84639;BME280;74869;51.924;5.712;2024-03-29T06:06:34;99236.41;;;7.33;84.09
84639;BME280;74869;51.924;5.712;2024-03-29T06:08:59;99238.00;;;7.34;84.22
84639;BME280;74869;51.924;5.712;2024-03-29T06:11:25;99245.91;;;7.39;84.11
84639;BME280;74869;51.924;5.712;2024-03-29T06:13:50;99252.72;;;7.31;84.51
84639;BME280;74869;51.924;5.712;2024-03-29T06:16:24;99236.03;;;7.25;84.52
84639;BME280;74869;51.924;5.712;2024-03-29T06:19:08;99248.06;;;7.37;84.27
84639;BME280;74869;51.924;5.712;2024-03-29T06:21:33;99249.09;;;7.41;84.78
84639;BME280;74869;51.924;5.712;2024-03-29T06:24:05;99251.66;;;7.46;84.88
84639;BME280;74869;51.924;5.712;2024-03-29T06:26:31;99250.06;;;7.45;84.71
84639;BME280;74869;51.924;5.712;2024-03-29T06:28:56;99237.78;;;7.44;84.65
84639;BME280;74869;51.924;5.712;2024-03-29T06:31:22;99238.13;;;7.42;84.65
84639;BME280;74869;51.924;5.712;2024-03-29T06:33:47;99220.50;;;7.28;84.21
84639;BME280;74869;51.924;5.712;2024-03-29T06:36:13;99235.91;;;7.44;84.65
84639;BME280;74869;51.924;5.712;2024-03-29T06:38:38;99246.88;;;7.43;84.36
84639;BME280;74869;51.924;5.712;2024-03-29T06:41:03;99263.81;;;7.52;84.96
84639;BME280;74869;51.924;5.712;2024-03-29T06:43:28;99255.41;;;7.45;85.04
84639;BME280;74869;51.924;5.712;2024-03-29T06:45:54;99245.34;;;7.42;85.14
84639;BME280;74869;51.924;5.712;2024-03-29T06:48:19;99258.75;;;7.50;85.28
84639;BME280;74869;51.924;5.712;2024-03-29T06:50:44;99246.88;;;7.43;85.10
84639;BME280;74869;51.924;5.712;2024-03-29T06:53:10;99257.16;;;7.49;85.36
84639;BME280;74869;51.924;5.712;2024-03-29T06:55:35;99248.97;;;7.46;85.21
84639;BME280;74869;51.924;5.712;2024-03-29T06:58:04;99249.16;;;7.49;85.51
84639;BME280;74869;51.924;5.712;2024-03-29T07:00:29;99233.25;;;7.31;85.88
84639;BME280;74869;51.924;5.712;2024-03-29T07:02:55;99231.25;;;7.50;85.89
84639;BME280;74869;51.924;5.712;2024-03-29T07:05:20;99208.25;;;7.40;86.34
84639;BME280;74869;51.924;5.712;2024-03-29T07:07:46;99237.59;;;7.54;86.13
84639;BME280;74869;51.924;5.712;2024-03-29T07:10:12;99238.19;;;7.51;85.69
84639;BME280;74869;51.924;5.712;2024-03-29T07:12:38;99239.59;;;7.48;86.12
84639;BME280;74869;51.924;5.712;2024-03-29T07:15:03;99245.63;;;7.54;85.94
84639;BME280;74869;51.924;5.712;2024-03-29T07:17:29;99248.56;;;7.52;86.01
84639;BME280;74869;51.924;5.712;2024-03-29T07:19:54;99255.78;;;7.52;85.86
84639;BME280;74869;51.924;5.712;2024-03-29T07:22:19;99273.78;;;7.60;86.08
84639;BME280;74869;51.924;5.712;2024-03-29T07:24:45;99266.25;;;7.62;85.76
84639;BME280;74869;51.924;5.712;2024-03-29T07:27:10;99272.00;;;7.69;86.01
84639;BME280;74869;51.924;5.712;2024-03-29T07:29:38;99275.06;;;7.76;86.00
84639;BME280;74869;51.924;5.712;2024-03-29T07:32:03;99285.44;;;7.78;85.72
84639;BME280;74869;51.924;5.712;2024-03-29T07:34:29;99269.03;;;7.71;85.96
84639;BME280;74869;51.924;5.712;2024-03-29T07:36:54;99279.03;;;7.79;86.25
84639;BME280;74869;51.924;5.712;2024-03-29T07:39:19;99276.13;;;7.75;85.96
84639;BME280;74869;51.924;5.712;2024-03-29T07:41:45;99275.06;;;7.76;85.78
84639;BME280;74869;51.924;5.712;2024-03-29T07:44:10;99290.38;;;7.84;85.54
84639;BME280;74869;51.924;5.712;2024-03-29T07:46:36;99300.47;;;7.87;85.81
84639;BME280;74869;51.924;5.712;2024-03-29T07:49:03;99298.91;;;7.86;85.86
84639;BME280;74869;51.924;5.712;2024-03-29T07:51:29;99299.38;;;7.88;85.87
84639;BME280;74869;51.924;5.712;2024-03-29T07:53:54;99298.41;;;7.84;86.09
84639;BME280;74869;51.924;5.712;2024-03-29T07:56:19;99279.94;;;7.74;86.18
84639;BME280;74869;51.924;5.712;2024-03-29T07:58:49;99291.97;;;7.85;86.07
84639;BME280;74869;51.924;5.712;2024-03-29T08:01:18;99301.56;;;7.86;85.97
84639;BME280;74869;51.924;5.712;2024-03-29T08:03:44;99293.84;;;7.85;85.89
84639;BME280;74869;51.924;5.712;2024-03-29T08:06:09;99300.66;;;7.91;86.36
84639;BME280;74869;51.924;5.712;2024-03-29T08:08:34;99274.34;;;7.84;85.88
84639;BME280;74869;51.924;5.712;2024-03-29T08:11:00;99285.59;;;7.95;86.15
84639;BME280;74869;51.924;5.712;2024-03-29T08:13:26;99304.63;;;7.93;85.91
84639;BME280;74869;51.924;5.712;2024-03-29T08:15:58;99300.84;;;7.94;85.66
84639;BME280;74869;51.924;5.712;2024-03-29T08:18:24;99286.91;;;7.97;85.87
84639;BME280;74869;51.924;5.712;2024-03-29T08:20:50;99273.66;;;7.92;86.03
84639;BME280;74869;51.924;5.712;2024-03-29T08:23:15;99297.09;;;7.95;85.71
84639;BME280;74869;51.924;5.712;2024-03-29T08:25:40;99307.59;;;8.05;85.49
84639;BME280;74869;51.924;5.712;2024-03-29T08:28:06;99275.13;;;7.98;85.46
84639;BME280;74869;51.924;5.712;2024-03-29T08:30:31;99275.88;;;8.13;85.74
84639;BME280;74869;51.924;5.712;2024-03-29T08:33:01;99282.56;;;8.24;85.79
84639;BME280;74869;51.924;5.712;2024-03-29T08:35:32;99247.88;;;8.10;85.62
84639;BME280;74869;51.924;5.712;2024-03-29T08:37:58;99252.25;;;8.28;85.82
84639;BME280;74869;51.924;5.712;2024-03-29T08:40:25;99275.50;;;8.41;85.27
84639;BME280;74869;51.924;5.712;2024-03-29T08:42:53;99281.88;;;8.54;85.04
84639;BME280;74869;51.924;5.712;2024-03-29T08:45:18;99290.63;;;8.91;85.04
84639;BME280;74869;51.924;5.712;2024-03-29T08:47:44;99288.97;;;9.34;85.33
84639;BME280;74869;51.924;5.712;2024-03-29T08:50:09;99288.78;;;9.79;84.39
84639;BME280;74869;51.924;5.712;2024-03-29T08:52:34;99276.19;;;10.05;83.94
84639;BME280;74869;51.924;5.712;2024-03-29T08:54:59;99275.78;;;10.29;83.19
84639;BME280;74869;51.924;5.712;2024-03-29T08:57:25;99285.72;;;10.28;82.36
84639;BME280;74869;51.924;5.712;2024-03-29T08:59:50;99288.22;;;10.33;82.21
84639;BME280;74869;51.924;5.712;2024-03-29T09:02:15;99291.41;;;10.35;81.91
84639;BME280;74869;51.924;5.712;2024-03-29T09:04:41;99294.38;;;10.25;81.88
84639;BME280;74869;51.924;5.712;2024-03-29T09:07:06;99290.59;;;10.18;82.06
84639;BME280;74869;51.924;5.712;2024-03-29T09:09:32;99297.84;;;10.26;81.56
84639;BME280;74869;51.924;5.712;2024-03-29T09:11:58;99300.84;;;10.24;81.68
84639;BME280;74869;51.924;5.712;2024-03-29T09:14:24;99308.13;;;10.50;81.46
84639;BME280;74869;51.924;5.712;2024-03-29T09:16:50;99308.72;;;10.64;81.22
84639;BME280;74869;51.924;5.712;2024-03-29T09:19:15;99293.59;;;10.68;81.01
84639;BME280;74869;51.924;5.712;2024-03-29T09:21:41;99306.19;;;10.93;80.44
84639;BME280;74869;51.924;5.712;2024-03-29T09:24:06;99303.94;;;10.95;80.16
84639;BME280;74869;51.924;5.712;2024-03-29T09:26:32;99307.84;;;11.15;79.18
84639;BME280;74869;51.924;5.712;2024-03-29T09:28:58;99293.97;;;11.51;79.24
84639;BME280;74869;51.924;5.712;2024-03-29T09:31:23;99298.66;;;11.92;78.52
84639;BME280;74869;51.924;5.712;2024-03-29T09:33:48;99297.53;;;12.22;77.67
84639;BME280;74869;51.924;5.712;2024-03-29T09:36:20;99292.13;;;12.43;77.23
84639;BME280;74869;51.924;5.712;2024-03-29T09:38:46;99292.03;;;12.72;75.93
84639;BME280;74869;51.924;5.712;2024-03-29T09:41:15;99300.41;;;12.92;75.36
84639;BME280;74869;51.924;5.712;2024-03-29T09:43:45;99296.06;;;12.99;74.65
84639;BME280;74869;51.924;5.712;2024-03-29T09:46:12;99280.63;;;13.33;74.03
84639;BME280;74869;51.924;5.712;2024-03-29T09:48:39;99296.03;;;13.56;73.41
84639;BME280;74869;51.924;5.712;2024-03-29T09:51:06;99305.25;;;13.55;72.87
84639;BME280;74869;51.924;5.712;2024-03-29T09:53:36;99311.84;;;13.34;72.60
84639;BME280;74869;51.924;5.712;2024-03-29T09:56:07;99311.94;;;13.13;72.48
84639;BME280;74869;51.924;5.712;2024-03-29T09:58:36;99309.38;;;13.16;73.22
84639;BME280;74869;51.924;5.712;2024-03-29T10:01:04;99329.84;;;13.30;72.51
84639;BME280;74869;51.924;5.712;2024-03-29T10:03:31;99316.69;;;13.28;71.98
84639;BME280;74869;51.924;5.712;2024-03-29T10:05:57;99328.81;;;13.22;72.21
84639;BME280;74869;51.924;5.712;2024-03-29T10:08:26;99306.13;;;13.23;71.94
84639;BME280;74869;51.924;5.712;2024-03-29T10:10:53;99309.25;;;13.25;72.20
84639;BME280;74869;51.924;5.712;2024-03-29T10:13:19;99311.19;;;13.24;71.72
84639;BME280;74869;51.924;5.712;2024-03-29T10:15:44;99305.88;;;13.16;71.43
84639;BME280;74869;51.924;5.712;2024-03-29T10:18:14;99316.38;;;13.09;71.37
84639;BME280;74869;51.924;5.712;2024-03-29T10:20:39;99308.44;;;13.12;71.72
84639;BME280;74869;51.924;5.712;2024-03-29T10:23:05;99304.63;;;13.13;71.66
84639;BME280;74869;51.924;5.712;2024-03-29T10:25:33;99306.06;;;13.11;70.92
84639;BME280;74869;51.924;5.712;2024-03-29T10:28:01;99315.28;;;13.10;70.93
84639;BME280;74869;51.924;5.712;2024-03-29T10:30:28;99323.53;;;12.93;70.97
84639;BME280;74869;51.924;5.712;2024-03-29T10:32:56;99318.59;;;12.95;71.33
84639;BME280;74869;51.924;5.712;2024-03-29T10:35:22;99315.09;;;13.15;71.20
84639;BME280;74869;51.924;5.712;2024-03-29T10:37:47;99306.47;;;13.46;71.00
84639;BME280;74869;51.924;5.712;2024-03-29T10:40:12;99300.81;;;14.12;70.60
84639;BME280;74869;51.924;5.712;2024-03-29T10:42:43;99332.72;;;14.74;68.76
84639;BME280;74869;51.924;5.712;2024-03-29T10:45:09;99314.75;;;14.94;67.60
84639;BME280;74869;51.924;5.712;2024-03-29T10:47:36;99313.22;;;15.24;67.76
84639;BME280;74869;51.924;5.712;2024-03-29T10:50:02;99310.97;;;15.42;67.22
84639;BME280;74869;51.924;5.712;2024-03-29T10:52:30;99312.63;;;15.62;66.34
84639;BME280;74869;51.924;5.712;2024-03-29T10:54:56;99311.25;;;15.68;65.13
84639;BME280;74869;51.924;5.712;2024-03-29T10:57:25;99322.59;;;15.58;65.11
84639;BME280;74869;51.924;5.712;2024-03-29T11:00:13;99318.66;;;15.40;65.05
84639;BME280;74869;51.924;5.712;2024-03-29T11:03:08;99324.63;;;15.17;65.41
84639;BME280;74869;51.924;5.712;2024-03-29T11:05:35;99338.94;;;15.02;65.80
84639;BME280;74869;51.924;5.712;2024-03-29T11:08:06;99314.94;;;14.73;65.76
84639;BME280;74869;51.924;5.712;2024-03-29T11:10:42;99324.28;;;15.03;66.38
84639;BME280;74869;51.924;5.712;2024-03-29T11:15:44;99334.63;;;15.76;64.78
84639;BME280;74869;51.924;5.712;2024-03-29T11:18:11;99346.66;;;15.94;64.51
84639;BME280;74869;51.924;5.712;2024-03-29T11:20:37;99340.03;;;16.27;63.96
84639;BME280;74869;51.924;5.712;2024-03-29T11:23:13;99322.91;;;16.38;62.35
84639;BME280;74869;51.924;5.712;2024-03-29T11:28:08;99295.88;;;16.80;60.75
84639;BME280;74869;51.924;5.712;2024-03-29T11:31:02;99312.72;;;16.70;61.09
84639;BME280;74869;51.924;5.712;2024-03-29T11:33:34;99300.34;;;16.34;61.23
84639;BME280;74869;51.924;5.712;2024-03-29T11:36:15;99317.34;;;16.16;61.78
84639;BME280;74869;51.924;5.712;2024-03-29T11:38:41;99329.50;;;16.41;61.84
84639;BME280;74869;51.924;5.712;2024-03-29T11:41:12;99329.56;;;16.60;61.04
84639;BME280;74869;51.924;5.712;2024-03-29T11:43:38;99320.84;;;16.51;60.86
84639;BME280;74869;51.924;5.712;2024-03-29T11:46:11;99324.91;;;16.80;60.78
84639;BME280;74869;51.924;5.712;2024-03-29T11:48:37;99319.59;;;17.06;59.85
84639;BME280;74869;51.924;5.712;2024-03-29T11:51:05;99347.16;;;17.08;58.54
84639;BME280;74869;51.924;5.712;2024-03-29T11:53:31;99353.78;;;17.11;58.90
84639;BME280;74869;51.924;5.712;2024-03-29T11:55:58;99346.03;;;17.55;57.95
84639;BME280;74869;51.924;5.712;2024-03-29T11:58:24;99337.16;;;17.81;57.31
84639;BME280;74869;51.924;5.712;2024-03-29T12:00:51;99348.78;;;17.78;58.08
84639;BME280;74869;51.924;5.712;2024-03-29T12:03:17;99332.75;;;17.95;57.29
84639;BME280;74869;51.924;5.712;2024-03-29T12:05:44;99349.19;;;18.06;57.07
84639;BME280;74869;51.924;5.712;2024-03-29T12:08:09;99349.06;;;17.99;57.32
84639;BME280;74869;51.924;5.712;2024-03-29T12:10:36;99348.53;;;17.63;57.19
84639;BME280;74869;51.924;5.712;2024-03-29T12:13:02;99340.72;;;17.39;58.11
84639;BME280;74869;51.924;5.712;2024-03-29T12:15:28;99369.31;;;17.33;57.40
84639;BME280;74869;51.924;5.712;2024-03-29T12:18:01;99341.91;;;16.96;57.72
84639;BME280;74869;51.924;5.712;2024-03-29T12:20:34;99372.81;;;17.34;58.22
84639;BME280;74869;51.924;5.712;2024-03-29T12:23:03;99345.47;;;17.23;57.23
84639;BME280;74869;51.924;5.712;2024-03-29T12:25:29;99377.28;;;17.45;56.65
84639;BME280;74869;51.924;5.712;2024-03-29T12:27:55;99351.97;;;17.41;57.23
84639;BME280;74869;51.924;5.712;2024-03-29T12:30:21;99356.03;;;17.28;55.69
84639;BME280;74869;51.924;5.712;2024-03-29T12:32:46;99344.66;;;17.00;56.32
84639;BME280;74869;51.924;5.712;2024-03-29T12:35:13;99371.63;;;17.12;56.39
84639;BME280;74869;51.924;5.712;2024-03-29T12:37:50;99368.56;;;17.13;55.79
84639;BME280;74869;51.924;5.712;2024-03-29T12:40:19;99326.50;;;17.04;56.10
84639;BME280;74869;51.924;5.712;2024-03-29T12:42:48;99380.59;;;17.81;56.17
84639;BME280;74869;51.924;5.712;2024-03-29T12:45:14;99380.31;;;18.12;55.75
84639;BME280;74869;51.924;5.712;2024-03-29T12:47:39;99380.31;;;18.12;54.51
84639;BME280;74869;51.924;5.712;2024-03-29T12:50:05;99311.13;;;17.53;53.78
84639;BME280;74869;51.924;5.712;2024-03-29T12:52:41;99376.31;;;18.02;53.93
84639;BME280;74869;51.924;5.712;2024-03-29T12:55:08;99368.00;;;18.18;54.42
84639;BME280;74869;51.924;5.712;2024-03-29T12:57:40;99374.38;;;18.29;54.27
84639;BME280;74869;51.924;5.712;2024-03-29T13:00:08;99368.78;;;18.19;53.11
84639;BME280;74869;51.924;5.712;2024-03-29T13:02:35;99382.69;;;18.14;52.54
84639;BME280;74869;51.924;5.712;2024-03-29T13:05:01;99364.97;;;18.23;52.91
84639;BME280;74869;51.924;5.712;2024-03-29T13:07:27;99338.53;;;18.20;53.41
84639;BME280;74869;51.924;5.712;2024-03-29T13:09:52;99365.47;;;18.59;52.41